sensor_id;sensor_type;location;lat;lon;timestamp;temperature;humidity
22635;DHT22;11484;50.858;4.384;2023-09-30T00:01:54;17.10;99.90
22635;DHT22;11484;50.858;4.384;2023-09-30T00:04:20;17.00;99.90
22635;DHT22;11484;50.858;4.384;2023-09-30T00:06:46;17.00;99.90
22635;DHT22;11484;50.858;4.384;2023-09-30T00:09:11;17.10;99.90
22635;DHT22;11484;50.858;4.384;2023-09-30T00:11:38;17.00;99.90
22635;DHT22;11484;50.858;4.384;2023-09-30T00:14:04;17.00;99.90
22635;DHT22;11484;50.858;4.384;2023-09-30T00:16:30;17.00;99.90
22635;DHT22;11484;50.858;4.384;2023-09-30T00:18:56;17.00;99.90
22635;DHT22;11484;50.858;4.384;2023-09-30T00:21:24;17.00;99.90
22635;DHT22;11484;50.858;4.384;2023-09-30T00:23:50;17.00;99.90
22635;DHT22;11484;50.858;4.384;2023-09-30T00:26:15;17.00;99.90
22635;DHT22;11484;50.858;4.384;2023-09-30T00:28:41;16.90;99.90
22635;DHT22;11484;50.858;4.384;2023-09-30T00:31:07;16.90;99.90
22635;DHT22;11484;50.858;4.384;2023-09-30T00:33:36;16.90;99.90
22635;DHT22;11484;50.858;4.384;2023-09-30T00:36:09;16.80;99.90
22635;DHT22;11484;50.858;4.384;2023-09-30T00:38:36;16.90;99.90
22635;DHT22;11484;50.858;4.384;2023-09-30T00:41:01;16.90;99.90
22635;DHT22;11484;50.858;4.384;2023-09-30T00:43:27;17.00;99.90
22635;DHT22;11484;50.858;4.384;2023-09-30T00:46:21;17.00;99.90
22635;DHT22;11484;50.858;4.384;2023-09-30T00:48:42;16.90;99.90
22635;DHT22;11484;50.858;4.384;2023-09-30T00:51:08;16.90;99.90
22635;DHT22;11484;50.858;4.384;2023-09-30T00:53:34;16.90;99.90
22635;DHT22;11484;50.858;4.384;2023-09-30T00:56:00;16.90;99.90
22635;DHT22;11484;50.858;4.384;2023-09-30T00:58:26;16.90;99.90
22635;DHT22;11484;50.858;4.384;2023-09-30T01:00:55;16.90;99.90
22635;DHT22;11484;50.858;4.384;2023-09-30T01:03:22;16.80;99.90
22635;DHT22;11484;50.858;4.384;2023-09-30T01:05:48;16.80;99.90
22635;DHT22;11484;50.858;4.384;2023-09-30T01:08:16;16.80;99.90
22635;DHT22;11484;50.858;4.384;2023-09-30T01:10:43;16.80;99.90
22635;DHT22;11484;50.858;4.384;2023-09-30T01:13:09;16.80;99.90
22635;DHT22;11484;50.858;4.384;2023-09-30T01:15:35;16.80;99.90
22635;DHT22;11484;50.858;4.384;2023-09-30T01:18:03;16.80;99.90
22635;DHT22;11484;50.858;4.384;2023-09-30T01:20:28;16.80;99.90
22635;DHT22;11484;50.858;4.384;2023-09-30T01:22:56;16.80;99.90
22635;DHT22;11484;50.858;4.384;2023-09-30T01:25:22;16.80;99.90
22635;DHT22;11484;50.858;4.384;2023-09-30T01:27:48;16.80;99.90
22635;DHT22;11484;50.858;4.384;2023-09-30T01:30:13;16.70;99.90
22635;DHT22;11484;50.858;4.384;2023-09-30T01:32:39;16.70;99.90
22635;DHT22;11484;50.858;4.384;2023-09-30T01:35:06;16.80;99.90
22635;DHT22;11484;50.858;4.384;2023-09-30T01:37:32;16.70;99.90
22635;DHT22;11484;50.858;4.384;2023-09-30T01:39:57;16.80;99.90
22635;DHT22;11484;50.858;4.384;2023-09-30T01:42:23;16.80;99.90
22635;DHT22;11484;50.858;4.384;2023-09-30T01:44:49;16.80;99.90
22635;DHT22;11484;50.858;4.384;2023-09-30T01:47:15;16.70;99.90
22635;DHT22;11484;50.858;4.384;2023-09-30T01:49:40;16.70;99.90
22635;DHT22;11484;50.858;4.384;2023-09-30T01:52:06;16.70;99.90
22635;DHT22;11484;50.858;4.384;2023-09-30T01:54:32;16.70;99.90
22635;DHT22;11484;50.858;4.384;2023-09-30T01:56:57;16.70;99.90
22635;DHT22;11484;50.858;4.384;2023-09-30T01:59:24;16.70;99.90
22635;DHT22;11484;50.858;4.384;2023-09-30T02:01:50;16.70;99.90
22635;DHT22;11484;50.858;4.384;2023-09-30T02:04:15;16.80;99.90
22635;DHT22;11484;50.858;4.384;2023-09-30T02:06:41;16.80;99.90
22635;DHT22;11484;50.858;4.384;2023-09-30T02:09:07;16.80;99.90
22635;DHT22;11484;50.858;4.384;2023-09-30T02:11:35;16.70;99.90
22635;DHT22;11484;50.858;4.384;2023-09-30T02:14:02;16.60;99.90
22635;DHT22;11484;50.858;4.384;2023-09-30T02:16:28;16.50;99.90
22635;DHT22;11484;50.858;4.384;2023-09-30T02:18:53;16.60;99.90
22635;DHT22;11484;50.858;4.384;2023-09-30T02:21:19;16.50;99.90
22635;DHT22;11484;50.858;4.384;2023-09-30T02:23:47;16.40;99.90
22635;DHT22;11484;50.858;4.384;2023-09-30T02:26:16;16.40;99.90
22635;DHT22;11484;50.858;4.384;2023-09-30T02:28:43;16.30;99.90
22635;DHT22;11484;50.858;4.384;2023-09-30T02:31:08;16.20;99.90
22635;DHT22;11484;50.858;4.384;2023-09-30T02:33:34;16.10;99.90
22635;DHT22;11484;50.858;4.384;2023-09-30T02:36:07;16.10;99.90
22635;DHT22;11484;50.858;4.384;2023-09-30T02:38:33;16.10;99.90
22635;DHT22;11484;50.858;4.384;2023-09-30T02:40:58;16.10;99.90
22635;DHT22;11484;50.858;4.384;2023-09-30T02:43:24;16.00;99.90
22635;DHT22;11484;50.858;4.384;2023-09-30T02:45:50;16.00;99.90
22635;DHT22;11484;50.858;4.384;2023-09-30T02:48:15;16.10;99.90
22635;DHT22;11484;50.858;4.384;2023-09-30T02:50:42;16.10;99.90
22635;DHT22;11484;50.858;4.384;2023-09-30T02:53:10;16.10;99.90
22635;DHT22;11484;50.858;4.384;2023-09-30T02:55:37;16.20;99.90
22635;DHT22;11484;50.858;4.384;2023-09-30T02:58:03;16.20;99.90
22635;DHT22;11484;50.858;4.384;2023-09-30T03:00:28;16.20;99.90
22635;DHT22;11484;50.858;4.384;2023-09-30T03:03:00;16.20;99.90
22635;DHT22;11484;50.858;4.384;2023-09-30T03:05:25;16.20;99.90
22635;DHT22;11484;50.858;4.384;2023-09-30T03:07:53;16.20;99.90
22635;DHT22;11484;50.858;4.384;2023-09-30T03:10:20;16.20;99.90
22635;DHT22;11484;50.858;4.384;2023-09-30T03:12:49;16.20;99.90
22635;DHT22;11484;50.858;4.384;2023-09-30T03:15:15;16.10;99.90
22635;DHT22;11484;50.858;4.384;2023-09-30T03:17:42;16.10;99.90
22635;DHT22;11484;50.858;4.384;2023-09-30T03:20:09;16.10;99.90
22635;DHT22;11484;50.858;4.384;2023-09-30T03:22:41;16.00;99.90
22635;DHT22;11484;50.858;4.384;2023-09-30T03:25:09;16.00;99.90
22635;DHT22;11484;50.858;4.384;2023-09-30T03:27:35;16.00;99.90
22635;DHT22;11484;50.858;4.384;2023-09-30T03:30:03;16.00;99.90
22635;DHT22;11484;50.858;4.384;2023-09-30T03:32:31;16.00;99.90
22635;DHT22;11484;50.858;4.384;2023-09-30T03:35:02;16.10;99.90
22635;DHT22;11484;50.858;4.384;2023-09-30T03:37:28;16.10;99.90
22635;DHT22;11484;50.858;4.384;2023-09-30T03:39:57;16.00;99.90
22635;DHT22;11484;50.858;4.384;2023-09-30T03:42:23;15.90;99.90
22635;DHT22;11484;50.858;4.384;2023-09-30T03:44:50;15.90;99.90
22635;DHT22;11484;50.858;4.384;2023-09-30T03:47:18;15.90;99.90
22635;DHT22;11484;50.858;4.384;2023-09-30T03:49:44;15.90;99.90
22635;DHT22;11484;50.858;4.384;2023-09-30T03:52:10;15.90;99.90
22635;DHT22;11484;50.858;4.384;2023-09-30T03:54:36;15.80;99.90
22635;DHT22;11484;50.858;4.384;2023-09-30T03:57:03;15.80;99.90
22635;DHT22;11484;50.858;4.384;2023-09-30T03:59:29;15.80;99.90
22635;DHT22;11484;50.858;4.384;2023-09-30T04:01:55;15.80;99.90
22635;DHT22;11484;50.858;4.384;2023-09-30T04:04:23;15.80;99.90
22635;DHT22;11484;50.858;4.384;2023-09-30T04:06:48;15.70;99.90
22635;DHT22;11484;50.858;4.384;2023-09-30T04:09:17;15.70;99.90
22635;DHT22;11484;50.858;4.384;2023-09-30T04:11:43;15.70;99.90
22635;DHT22;11484;50.858;4.384;2023-09-30T04:14:09;15.70;99.90
22635;DHT22;11484;50.858;4.384;2023-09-30T04:16:35;15.70;99.90
22635;DHT22;11484;50.858;4.384;2023-09-30T04:19:03;15.70;99.90
22635;DHT22;11484;50.858;4.384;2023-09-30T04:21:28;15.60;99.90
22635;DHT22;11484;50.858;4.384;2023-09-30T04:23:56;15.50;99.90
22635;DHT22;11484;50.858;4.384;2023-09-30T04:26:22;15.40;99.90
22635;DHT22;11484;50.858;4.384;2023-09-30T04:28:48;15.40;99.90
22635;DHT22;11484;50.858;4.384;2023-09-30T04:31:15;15.40;99.90
22635;DHT22;11484;50.858;4.384;2023-09-30T04:33:41;15.50;99.90
22635;DHT22;11484;50.858;4.384;2023-09-30T04:36:06;15.40;99.90
22635;DHT22;11484;50.858;4.384;2023-09-30T04:38:36;15.40;99.90
22635;DHT22;11484;50.858;4.384;2023-09-30T04:41:05;15.40;99.90
22635;DHT22;11484;50.858;4.384;2023-09-30T04:43:33;15.40;99.90
22635;DHT22;11484;50.858;4.384;2023-09-30T04:46:00;15.40;99.90
22635;DHT22;11484;50.858;4.384;2023-09-30T04:48:25;15.40;99.90
22635;DHT22;11484;50.858;4.384;2023-09-30T04:50:51;15.40;99.90
22635;DHT22;11484;50.858;4.384;2023-09-30T04:53:17;15.40;99.90
22635;DHT22;11484;50.858;4.384;2023-09-30T04:55:46;15.30;99.90
22635;DHT22;11484;50.858;4.384;2023-09-30T04:58:14;15.30;99.90
22635;DHT22;11484;50.858;4.384;2023-09-30T05:00:40;15.30;99.90
22635;DHT22;11484;50.858;4.384;2023-09-30T05:03:06;15.30;99.90
22635;DHT22;11484;50.858;4.384;2023-09-30T05:05:32;15.30;99.90
22635;DHT22;11484;50.858;4.384;2023-09-30T05:07:58;15.20;99.90
22635;DHT22;11484;50.858;4.384;2023-09-30T05:10:25;15.20;99.90
22635;DHT22;11484;50.858;4.384;2023-09-30T05:12:50;15.20;99.90
22635;DHT22;11484;50.858;4.384;2023-09-30T05:15:20;15.20;99.90
22635;DHT22;11484;50.858;4.384;2023-09-30T05:17:47;15.10;99.90
22635;DHT22;11484;50.858;4.384;2023-09-30T05:20:13;15.10;99.90
22635;DHT22;11484;50.858;4.384;2023-09-30T05:22:42;15.10;99.90
22635;DHT22;11484;50.858;4.384;2023-09-30T05:25:11;15.20;99.90
22635;DHT22;11484;50.858;4.384;2023-09-30T05:27:37;15.20;99.90
22635;DHT22;11484;50.858;4.384;2023-09-30T05:30:04;15.20;99.90
22635;DHT22;11484;50.858;4.384;2023-09-30T05:32:32;15.20;99.90
22635;DHT22;11484;50.858;4.384;2023-09-30T05:34:58;15.20;99.90
22635;DHT22;11484;50.858;4.384;2023-09-30T05:37:24;15.20;99.90
22635;DHT22;11484;50.858;4.384;2023-09-30T05:39:50;15.20;99.90
22635;DHT22;11484;50.858;4.384;2023-09-30T05:42:16;15.20;99.90
22635;DHT22;11484;50.858;4.384;2023-09-30T05:44:44;15.20;99.90
22635;DHT22;11484;50.858;4.384;2023-09-30T05:47:10;15.20;99.90
22635;DHT22;11484;50.858;4.384;2023-09-30T05:49:35;15.20;99.90
22635;DHT22;11484;50.858;4.384;2023-09-30T05:52:02;15.20;99.90
22635;DHT22;11484;50.858;4.384;2023-09-30T05:54:28;15.20;99.90
22635;DHT22;11484;50.858;4.384;2023-09-30T05:56:54;15.20;99.90
22635;DHT22;11484;50.858;4.384;2023-09-30T05:59:20;15.20;99.90
22635;DHT22;11484;50.858;4.384;2023-09-30T06:01:46;15.30;99.90
22635;DHT22;11484;50.858;4.384;2023-09-30T06:04:12;15.40;99.90
22635;DHT22;11484;50.858;4.384;2023-09-30T06:06:38;15.50;99.90
22635;DHT22;11484;50.858;4.384;2023-09-30T06:09:04;15.50;99.90
22635;DHT22;11484;50.858;4.384;2023-09-30T06:11:33;15.50;99.90
22635;DHT22;11484;50.858;4.384;2023-09-30T06:13:59;15.50;99.90
22635;DHT22;11484;50.858;4.384;2023-09-30T06:16:26;15.50;99.90
22635;DHT22;11484;50.858;4.384;2023-09-30T06:18:55;15.50;99.90
22635;DHT22;11484;50.858;4.384;2023-09-30T06:21:21;15.60;99.90
22635;DHT22;11484;50.858;4.384;2023-09-30T06:23:50;15.70;99.90
22635;DHT22;11484;50.858;4.384;2023-09-30T06:26:19;15.70;99.90
22635;DHT22;11484;50.858;4.384;2023-09-30T06:28:46;15.70;99.90
22635;DHT22;11484;50.858;4.384;2023-09-30T06:31:13;15.80;99.90
22635;DHT22;11484;50.858;4.384;2023-09-30T06:33:39;15.80;99.90
22635;DHT22;11484;50.858;4.384;2023-09-30T06:36:14;15.90;99.90
22635;DHT22;11484;50.858;4.384;2023-09-30T06:38:40;15.90;99.90
22635;DHT22;11484;50.858;4.384;2023-09-30T06:41:15;15.80;99.90
22635;DHT22;11484;50.858;4.384;2023-09-30T06:43:41;15.80;99.90
22635;DHT22;11484;50.858;4.384;2023-09-30T06:46:07;15.80;99.90
22635;DHT22;11484;50.858;4.384;2023-09-30T06:48:35;15.90;99.90
22635;DHT22;11484;50.858;4.384;2023-09-30T06:51:01;15.80;99.90
22635;DHT22;11484;50.858;4.384;2023-09-30T06:53:27;15.80;99.90
22635;DHT22;11484;50.858;4.384;2023-09-30T06:55:53;16.10;99.90
22635;DHT22;11484;50.858;4.384;2023-09-30T06:58:19;16.60;99.90
22635;DHT22;11484;50.858;4.384;2023-09-30T07:00:48;17.30;99.90
22635;DHT22;11484;50.858;4.384;2023-09-30T07:03:15;18.10;99.90
22635;DHT22;11484;50.858;4.384;2023-09-30T07:05:41;18.80;99.90
22635;DHT22;11484;50.858;4.384;2023-09-30T07:08:06;19.40;99.90
22635;DHT22;11484;50.858;4.384;2023-09-30T07:10:33;19.90;99.90
22635;DHT22;11484;50.858;4.384;2023-09-30T07:13:02;20.20;99.90
22635;DHT22;11484;50.858;4.384;2023-09-30T07:15:28;20.20;99.90
22635;DHT22;11484;50.858;4.384;2023-09-30T07:17:53;20.20;99.90
22635;DHT22;11484;50.858;4.384;2023-09-30T07:20:19;20.20;99.90
22635;DHT22;11484;50.858;4.384;2023-09-30T07:22:46;20.20;99.90
22635;DHT22;11484;50.858;4.384;2023-09-30T07:25:12;20.30;99.90
22635;DHT22;11484;50.858;4.384;2023-09-30T07:27:40;20.30;99.90
22635;DHT22;11484;50.858;4.384;2023-09-30T07:30:06;20.30;99.90
22635;DHT22;11484;50.858;4.384;2023-09-30T07:32:32;20.10;99.90
22635;DHT22;11484;50.858;4.384;2023-09-30T07:34:58;19.90;99.90
22635;DHT22;11484;50.858;4.384;2023-09-30T07:37:23;19.80;99.90
22635;DHT22;11484;50.858;4.384;2023-09-30T07:39:49;19.50;99.90
22635;DHT22;11484;50.858;4.384;2023-09-30T07:42:15;19.40;99.90
22635;DHT22;11484;50.858;4.384;2023-09-30T07:44:42;19.30;99.90
22635;DHT22;11484;50.858;4.384;2023-09-30T07:47:08;19.20;99.90
22635;DHT22;11484;50.858;4.384;2023-09-30T07:49:38;19.10;99.90
22635;DHT22;11484;50.858;4.384;2023-09-30T07:52:03;19.00;99.90
22635;DHT22;11484;50.858;4.384;2023-09-30T07:54:29;18.90;99.90
22635;DHT22;11484;50.858;4.384;2023-09-30T07:56:55;18.80;99.90
22635;DHT22;11484;50.858;4.384;2023-09-30T07:59:21;18.70;99.90
22635;DHT22;11484;50.858;4.384;2023-09-30T08:01:48;18.60;99.90
22635;DHT22;11484;50.858;4.384;2023-09-30T08:04:14;18.40;99.90
22635;DHT22;11484;50.858;4.384;2023-09-30T08:06:39;18.40;99.90
22635;DHT22;11484;50.858;4.384;2023-09-30T08:09:05;18.40;99.90
22635;DHT22;11484;50.858;4.384;2023-09-30T08:11:36;18.40;99.90
22635;DHT22;11484;50.858;4.384;2023-09-30T08:14:03;18.40;99.90
22635;DHT22;11484;50.858;4.384;2023-09-30T08:16:33;18.50;99.90
22635;DHT22;11484;50.858;4.384;2023-09-30T08:18:59;18.50;99.90
22635;DHT22;11484;50.858;4.384;2023-09-30T08:21:24;18.60;99.90
22635;DHT22;11484;50.858;4.384;2023-09-30T08:23:50;18.60;99.90
22635;DHT22;11484;50.858;4.384;2023-09-30T08:26:16;18.80;99.90
22635;DHT22;11484;50.858;4.384;2023-09-30T08:28:41;18.80;99.90
22635;DHT22;11484;50.858;4.384;2023-09-30T08:31:07;18.90;99.90
22635;DHT22;11484;50.858;4.384;2023-09-30T08:33:34;19.00;99.90
22635;DHT22;11484;50.858;4.384;2023-09-30T08:36:06;19.00;99.90
22635;DHT22;11484;50.858;4.384;2023-09-30T08:38:51;19.20;99.90
22635;DHT22;11484;50.858;4.384;2023-09-30T08:41:30;19.20;99.90
22635;DHT22;11484;50.858;4.384;2023-09-30T08:44:00;19.40;99.90
22635;DHT22;11484;50.858;4.384;2023-09-30T08:46:28;19.70;99.90
22635;DHT22;11484;50.858;4.384;2023-09-30T08:48:58;19.70;99.90
22635;DHT22;11484;50.858;4.384;2023-09-30T08:51:25;19.70;99.90
22635;DHT22;11484;50.858;4.384;2023-09-30T08:53:55;19.80;99.90
22635;DHT22;11484;50.858;4.384;2023-09-30T08:56:27;19.80;99.90
22635;DHT22;11484;50.858;4.384;2023-09-30T08:58:58;20.00;99.90
22635;DHT22;11484;50.858;4.384;2023-09-30T09:01:28;20.20;99.90
22635;DHT22;11484;50.858;4.384;2023-09-30T09:03:54;20.60;99.90
22635;DHT22;11484;50.858;4.384;2023-09-30T09:06:21;21.30;99.90
22635;DHT22;11484;50.858;4.384;2023-09-30T09:08:47;21.60;99.90
22635;DHT22;11484;50.858;4.384;2023-09-30T09:11:23;22.00;99.90
22635;DHT22;11484;50.858;4.384;2023-09-30T09:13:55;22.20;99.90
22635;DHT22;11484;50.858;4.384;2023-09-30T09:16:22;22.60;99.90
22635;DHT22;11484;50.858;4.384;2023-09-30T09:18:49;22.60;99.90
22635;DHT22;11484;50.858;4.384;2023-09-30T09:21:19;22.90;99.90
22635;DHT22;11484;50.858;4.384;2023-09-30T09:23:50;23.00;99.90
22635;DHT22;11484;50.858;4.384;2023-09-30T09:26:29;23.00;99.90
22635;DHT22;11484;50.858;4.384;2023-09-30T09:28:58;23.30;99.90
22635;DHT22;11484;50.858;4.384;2023-09-30T09:31:26;23.50;99.90
22635;DHT22;11484;50.858;4.384;2023-09-30T09:33:52;23.60;99.90
22635;DHT22;11484;50.858;4.384;2023-09-30T09:36:19;23.70;99.90
22635;DHT22;11484;50.858;4.384;2023-09-30T09:38:51;23.80;99.90
22635;DHT22;11484;50.858;4.384;2023-09-30T09:41:20;23.80;99.90
22635;DHT22;11484;50.858;4.384;2023-09-30T09:43:49;24.10;99.90
22635;DHT22;11484;50.858;4.384;2023-09-30T09:46:17;24.10;99.90
22635;DHT22;11484;50.858;4.384;2023-09-30T09:48:45;24.20;99.90
22635;DHT22;11484;50.858;4.384;2023-09-30T09:51:14;24.30;99.90
22635;DHT22;11484;50.858;4.384;2023-09-30T09:53:41;24.50;99.90
22635;DHT22;11484;50.858;4.384;2023-09-30T09:56:10;24.60;99.50
22635;DHT22;11484;50.858;4.384;2023-09-30T09:58:37;24.60;99.60
22635;DHT22;11484;50.858;4.384;2023-09-30T10:01:06;24.70;99.40
22635;DHT22;11484;50.858;4.384;2023-09-30T10:03:35;24.60;99.00
22635;DHT22;11484;50.858;4.384;2023-09-30T10:06:05;24.60;99.00
22635;DHT22;11484;50.858;4.384;2023-09-30T10:08:41;24.20;99.20
22635;DHT22;11484;50.858;4.384;2023-09-30T10:11:09;23.80;99.60
22635;DHT22;11484;50.858;4.384;2023-09-30T10:13:53;23.30;99.90
22635;DHT22;11484;50.858;4.384;2023-09-30T10:19:20;22.60;99.90
22635;DHT22;11484;50.858;4.384;2023-09-30T10:24:41;22.20;99.90
22635;DHT22;11484;50.858;4.384;2023-09-30T10:40:47;21.20;99.90
22635;DHT22;11484;50.858;4.384;2023-09-30T10:43:33;21.20;99.90
22635;DHT22;11484;50.858;4.384;2023-09-30T10:45:59;21.30;99.90
22635;DHT22;11484;50.858;4.384;2023-09-30T10:50:53;21.20;99.90
22635;DHT22;11484;50.858;4.384;2023-09-30T10:53:21;21.30;99.90
22635;DHT22;11484;50.858;4.384;2023-09-30T10:55:53;21.40;99.90
22635;DHT22;11484;50.858;4.384;2023-09-30T10:58:20;21.40;99.90
22635;DHT22;11484;50.858;4.384;2023-09-30T11:00:53;21.30;99.90
22635;DHT22;11484;50.858;4.384;2023-09-30T11:03:22;21.20;99.90
22635;DHT22;11484;50.858;4.384;2023-09-30T11:05:48;21.30;99.90
22635;DHT22;11484;50.858;4.384;2023-09-30T11:08:16;21.30;99.90
22635;DHT22;11484;50.858;4.384;2023-09-30T11:10:50;21.20;99.90
22635;DHT22;11484;50.858;4.384;2023-09-30T11:13:17;21.10;99.90
22635;DHT22;11484;50.858;4.384;2023-09-30T11:15:44;21.10;99.90
22635;DHT22;11484;50.858;4.384;2023-09-30T11:18:17;21.00;99.90
22635;DHT22;11484;50.858;4.384;2023-09-30T11:20:44;21.00;99.90
22635;DHT22;11484;50.858;4.384;2023-09-30T11:23:11;21.10;99.90
22635;DHT22;11484;50.858;4.384;2023-09-30T11:25:37;21.10;99.90
22635;DHT22;11484;50.858;4.384;2023-09-30T11:28:17;21.20;99.90
22635;DHT22;11484;50.858;4.384;2023-09-30T11:31:00;21.10;99.90
22635;DHT22;11484;50.858;4.384;2023-09-30T11:33:28;21.20;99.90
22635;DHT22;11484;50.858;4.384;2023-09-30T11:36:02;21.10;99.90
22635;DHT22;11484;50.858;4.384;2023-09-30T11:38:29;21.10;99.90
22635;DHT22;11484;50.858;4.384;2023-09-30T11:41:05;21.20;99.90
22635;DHT22;11484;50.858;4.384;2023-09-30T11:43:34;21.10;99.90
22635;DHT22;11484;50.858;4.384;2023-09-30T11:46:12;21.20;99.90
22635;DHT22;11484;50.858;4.384;2023-09-30T11:48:56;21.20;99.90
22635;DHT22;11484;50.858;4.384;2023-09-30T11:51:22;21.20;99.90
22635;DHT22;11484;50.858;4.384;2023-09-30T11:53:52;21.20;99.90
22635;DHT22;11484;50.858;4.384;2023-09-30T11:56:23;21.30;99.90
22635;DHT22;11484;50.858;4.384;2023-09-30T11:58:55;21.30;99.90
22635;DHT22;11484;50.858;4.384;2023-09-30T12:01:21;21.40;99.90
22635;DHT22;11484;50.858;4.384;2023-09-30T12:03:48;21.40;99.90
22635;DHT22;11484;50.858;4.384;2023-09-30T12:06:14;21.30;99.90
22635;DHT22;11484;50.858;4.384;2023-09-30T12:08:42;21.30;99.90
22635;DHT22;11484;50.858;4.384;2023-09-30T12:11:08;21.40;99.90
22635;DHT22;11484;50.858;4.384;2023-09-30T12:13:34;21.40;99.90
22635;DHT22;11484;50.858;4.384;2023-09-30T12:15:59;21.40;99.90
22635;DHT22;11484;50.858;4.384;2023-09-30T12:18:25;21.40;99.90
22635;DHT22;11484;50.858;4.384;2023-09-30T12:20:52;21.50;99.90
22635;DHT22;11484;50.858;4.384;2023-09-30T12:23:18;21.50;99.90
22635;DHT22;11484;50.858;4.384;2023-09-30T12:25:48;21.60;99.90
22635;DHT22;11484;50.858;4.384;2023-09-30T12:28:13;21.60;99.90
22635;DHT22;11484;50.858;4.384;2023-09-30T12:30:40;21.60;99.90
22635;DHT22;11484;50.858;4.384;2023-09-30T12:33:07;21.60;99.90
22635;DHT22;11484;50.858;4.384;2023-09-30T12:35:33;21.50;99.90
22635;DHT22;11484;50.858;4.384;2023-09-30T12:37:59;21.40;99.90
22635;DHT22;11484;50.858;4.384;2023-09-30T12:40:25;21.40;99.70
22635;DHT22;11484;50.858;4.384;2023-09-30T12:42:51;21.40;99.60
22635;DHT22;11484;50.858;4.384;2023-09-30T12:45:16;21.40;99.60
22635;DHT22;11484;50.858;4.384;2023-09-30T12:47:44;21.40;99.00
22635;DHT22;11484;50.858;4.384;2023-09-30T12:50:10;21.50;98.00
22635;DHT22;11484;50.858;4.384;2023-09-30T12:52:36;21.40;98.00
22635;DHT22;11484;50.858;4.384;2023-09-30T12:55:04;21.30;98.70
22635;DHT22;11484;50.858;4.384;2023-09-30T12:57:31;21.30;98.50
22635;DHT22;11484;50.858;4.384;2023-09-30T12:59:57;21.20;98.40
22635;DHT22;11484;50.858;4.384;2023-09-30T13:02:23;21.00;98.30
22635;DHT22;11484;50.858;4.384;2023-09-30T13:04:49;20.90;98.40
22635;DHT22;11484;50.858;4.384;2023-09-30T13:07:14;20.90;99.40
22635;DHT22;11484;50.858;4.384;2023-09-30T13:09:41;21.00;99.70
22635;DHT22;11484;50.858;4.384;2023-09-30T13:12:07;21.20;99.90
22635;DHT22;11484;50.858;4.384;2023-09-30T13:14:34;21.20;99.90
22635;DHT22;11484;50.858;4.384;2023-09-30T13:16:59;21.30;99.70
22635;DHT22;11484;50.858;4.384;2023-09-30T13:19:26;21.30;99.80
22635;DHT22;11484;50.858;4.384;2023-09-30T13:21:52;21.30;99.60
22635;DHT22;11484;50.858;4.384;2023-09-30T13:24:20;21.20;99.40
22635;DHT22;11484;50.858;4.384;2023-09-30T13:26:46;21.10;99.40
22635;DHT22;11484;50.858;4.384;2023-09-30T13:29:12;21.10;99.50
22635;DHT22;11484;50.858;4.384;2023-09-30T13:31:38;21.10;99.90
22635;DHT22;11484;50.858;4.384;2023-09-30T13:34:05;21.20;99.60
22635;DHT22;11484;50.858;4.384;2023-09-30T13:36:31;21.30;99.30
22635;DHT22;11484;50.858;4.384;2023-09-30T13:38:57;21.30;99.30
22635;DHT22;11484;50.858;4.384;2023-09-30T13:41:23;21.40;99.20
22635;DHT22;11484;50.858;4.384;2023-09-30T13:43:48;21.40;99.10
22635;DHT22;11484;50.858;4.384;2023-09-30T13:46:14;21.50;99.00
22635;DHT22;11484;50.858;4.384;2023-09-30T13:48:41;21.50;98.60
22635;DHT22;11484;50.858;4.384;2023-09-30T13:51:08;21.50;98.30
22635;DHT22;11484;50.858;4.384;2023-09-30T13:53:34;21.60;98.60
22635;DHT22;11484;50.858;4.384;2023-09-30T13:56:00;21.60;98.50
22635;DHT22;11484;50.858;4.384;2023-09-30T13:58:26;21.70;98.70
22635;DHT22;11484;50.858;4.384;2023-09-30T14:00:52;21.80;98.60
22635;DHT22;11484;50.858;4.384;2023-09-30T14:03:22;21.70;98.40
22635;DHT22;11484;50.858;4.384;2023-09-30T14:05:52;21.70;98.10
22635;DHT22;11484;50.858;4.384;2023-09-30T14:08:35;21.60;98.00
22635;DHT22;11484;50.858;4.384;2023-09-30T14:11:19;21.60;97.80
22635;DHT22;11484;50.858;4.384;2023-09-30T14:13:44;21.70;97.50
22635;DHT22;11484;50.858;4.384;2023-09-30T14:16:10;21.80;97.30
22635;DHT22;11484;50.858;4.384;2023-09-30T14:18:36;21.70;96.90
22635;DHT22;11484;50.858;4.384;2023-09-30T14:21:05;21.60;97.50
22635;DHT22;11484;50.858;4.384;2023-09-30T14:23:31;21.50;97.90
22635;DHT22;11484;50.858;4.384;2023-09-30T14:25:56;21.30;97.70
22635;DHT22;11484;50.858;4.384;2023-09-30T14:28:23;21.20;97.80
22635;DHT22;11484;50.858;4.384;2023-09-30T14:30:49;21.20;98.40
22635;DHT22;11484;50.858;4.384;2023-09-30T14:33:18;21.40;98.50
22635;DHT22;11484;50.858;4.384;2023-09-30T14:35:47;21.50;98.50
22635;DHT22;11484;50.858;4.384;2023-09-30T14:38:13;21.60;98.40
22635;DHT22;11484;50.858;4.384;2023-09-30T14:40:40;21.60;98.40
22635;DHT22;11484;50.858;4.384;2023-09-30T14:43:09;21.60;97.20
22635;DHT22;11484;50.858;4.384;2023-09-30T14:45:41;21.60;97.30
22635;DHT22;11484;50.858;4.384;2023-09-30T14:48:08;21.70;97.50
22635;DHT22;11484;50.858;4.384;2023-09-30T14:50:35;21.60;97.60
22635;DHT22;11484;50.858;4.384;2023-09-30T14:53:02;21.60;97.70
22635;DHT22;11484;50.858;4.384;2023-09-30T14:55:28;21.70;97.70
22635;DHT22;11484;50.858;4.384;2023-09-30T14:57:55;21.70;97.80
22635;DHT22;11484;50.858;4.384;2023-09-30T15:00:21;21.70;97.80
22635;DHT22;11484;50.858;4.384;2023-09-30T15:02:50;21.70;97.60
22635;DHT22;11484;50.858;4.384;2023-09-30T15:05:16;21.70;97.60
22635;DHT22;11484;50.858;4.384;2023-09-30T15:07:42;21.60;97.50
22635;DHT22;11484;50.858;4.384;2023-09-30T15:10:08;21.50;97.00
22635;DHT22;11484;50.858;4.384;2023-09-30T15:12:34;21.40;97.20
22635;DHT22;11484;50.858;4.384;2023-09-30T15:15:01;21.40;97.40
22635;DHT22;11484;50.858;4.384;2023-09-30T15:17:27;21.50;97.10
22635;DHT22;11484;50.858;4.384;2023-09-30T15:19:55;21.50;97.00
22635;DHT22;11484;50.858;4.384;2023-09-30T15:22:20;21.40;97.20
22635;DHT22;11484;50.858;4.384;2023-09-30T15:24:46;21.50;97.40
22635;DHT22;11484;50.858;4.384;2023-09-30T15:27:12;21.50;97.30
22635;DHT22;11484;50.858;4.384;2023-09-30T15:29:37;21.50;97.30
22635;DHT22;11484;50.858;4.384;2023-09-30T15:32:03;21.30;97.40
22635;DHT22;11484;50.858;4.384;2023-09-30T15:34:30;21.20;97.70
22635;DHT22;11484;50.858;4.384;2023-09-30T15:36:55;21.20;98.10
22635;DHT22;11484;50.858;4.384;2023-09-30T15:39:22;21.30;98.20
22635;DHT22;11484;50.858;4.384;2023-09-30T15:41:47;21.30;98.20
22635;DHT22;11484;50.858;4.384;2023-09-30T15:44:13;21.40;97.70
22635;DHT22;11484;50.858;4.384;2023-09-30T15:46:39;21.30;97.50
22635;DHT22;11484;50.858;4.384;2023-09-30T15:49:04;21.10;96.80
22635;DHT22;11484;50.858;4.384;2023-09-30T15:51:30;21.00;96.00
22635;DHT22;11484;50.858;4.384;2023-09-30T15:53:56;20.90;95.90